Time;durP1;ratioP1;P1;durP2;ratioP2;P2;SDS_P1;SDS_P2;PMS_P1;PMS_P2;Temp;Humidity;BMP_temperature;BMP_pressure;BME280_temperature;BME280_humidity;BME280_pressure;Samples;Min_cycle;Max_cycle;Signal;HPM_P1;HPM_P2
2022/08/17 00:00:27;;;;;;;12.20;5.93;;;;;;;19.30;64.21;95767.88;4986511;28;20043;-82
2022/08/17 00:03:02;;;;;;;14.15;6.25;;;;;;;19.20;64.21;95766.66;4970832;28;20058;-81
2022/08/17 00:05:31;;;;;;;12.98;5.85;;;;;;;19.03;64.55;95765.41;4988875;28;20047;-82
2022/08/17 00:07:57;;;;;;;14.40;6.93;;;;;;;19.01;64.68;95756.72;4988185;28;20057;-81
2022/08/17 00:10:24;;;;;;;10.27;5.57;;;;;;;19.02;64.74;95757.50;4986751;28;20047;-81
2022/08/17 00:12:52;;;;;;;10.68;5.88;;;;;;;19.06;64.72;95763.06;4987411;28;20043;-81
2022/08/17 00:15:20;;;;;;;11.55;6.05;;;;;;;19.09;64.94;95757.53;4986432;28;20049;-81
2022/08/17 00:17:48;;;;;;;10.85;6.07;;;;;;;19.11;64.80;95752.44;4987438;28;20051;-82
2022/08/17 00:20:15;;;;;;;13.77;6.65;;;;;;;19.12;64.59;95758.75;4986825;28;20047;-82
2022/08/17 00:22:43;;;;;;;9.85;5.47;;;;;;;19.04;64.88;95761.47;4986984;28;20054;-83
2022/08/17 00:25:16;;;;;;;14.80;6.95;;;;;;;18.93;65.33;95751.56;4979031;28;20054;-81
2022/08/17 00:27:42;;;;;;;11.85;5.95;;;;;;;18.86;65.62;95752.31;4980506;28;20055;-81
2022/08/17 00:30:13;;;;;;;14.25;6.97;;;;;;;18.80;65.89;95762.13;4979443;28;20047;-80
2022/08/17 00:32:41;;;;;;;11.52;6.15;;;;;;;18.80;66.10;95770.41;4963364;28;20055;-82
2022/08/17 00:35:11;;;;;;;15.73;6.97;;;;;;;18.80;66.36;95759.38;4979868;28;20054;-80
2022/08/17 00:37:37;;;;;;;12.02;6.47;;;;;;;18.75;66.65;95762.50;4980402;28;20058;-81
2022/08/17 00:40:05;;;;;;;12.85;6.43;;;;;;;18.70;66.66;95771.94;4979179;28;20051;-80
2022/08/17 00:42:33;;;;;;;11.32;6.15;;;;;;;18.68;66.53;95762.44;4980166;28;20051;-81
2022/08/17 00:44:59;;;;;;;12.25;6.18;;;;;;;18.62;66.69;95752.91;4979810;28;20054;-81
2022/08/17 00:47:28;;;;;;;13.52;6.47;;;;;;;18.59;66.47;95748.19;4978798;28;20043;-82
2022/08/17 00:49:54;;;;;;;14.18;6.78;;;;;;;18.54;67.41;95746.59;4969432;28;20046;-81
2022/08/17 00:52:27;;;;;;;13.23;6.50;;;;;;;18.49;67.50;95742.22;4985487;28;20051;-82
2022/08/17 00:54:55;;;;;;;11.45;5.78;;;;;;;18.54;67.46;95751.31;4988446;28;20047;-82
2022/08/17 00:57:31;;;;;;;14.27;6.40;;;;;;;18.58;66.64;95752.88;4988958;28;20055;-82
2022/08/17 01:00:02;;;;;;;12.85;6.43;;;;;;;18.54;66.39;95751.31;4986707;28;20074;-84
2022/08/17 01:02:33;;;;;;;14.18;6.63;;;;;;;18.54;66.77;95748.56;4984225;28;20099;-82
2022/08/17 01:05:00;;;;;;;8.98;5.15;;;;;;;18.38;67.18;95740.56;4987359;28;20046;-81
2022/08/17 01:07:28;;;;;;;10.45;6.03;;;;;;;18.31;67.66;95738.53;4986219;28;20046;-82
2022/08/17 01:09:55;;;;;;;10.65;5.97;;;;;;;18.31;67.54;95737.75;4987015;28;20054;-82
2022/08/17 01:12:21;;;;;;;14.70;6.35;;;;;;;18.27;67.57;95734.97;4986608;28;22784;-82
2022/08/17 01:14:48;;;;;;;17.42;6.28;;;;;;;18.33;67.27;95738.97;4983918;28;20434;-81
2022/08/17 01:17:15;;;;;;;14.35;6.22;;;;;;;18.33;67.60;95743.69;4985745;28;20058;-81
2022/08/17 01:19:46;;;;;;;12.88;6.65;;;;;;;18.33;67.41;95741.72;4984348;28;20050;-82
2022/08/17 01:22:21;;;;;;;18.60;6.40;;;;;;;18.34;67.50;95742.50;4985052;28;20078;-82
2022/08/17 01:24:52;;;;;;;17.02;7.07;;;;;;;18.31;67.30;95738.53;4965822;28;20084;-81
2022/08/17 01:27:19;;;;;;;9.57;5.90;;;;;;;18.30;67.23;95725.94;4986119;28;20054;-83
2022/08/17 01:29:55;;;;;;;12.30;6.60;;;;;;;18.29;67.22;95724.34;4986941;28;20139;-82
2022/08/17 01:32:22;;;;;;;7.80;5.82;;;;;;;18.24;67.00;95722.75;4986591;28;20046;-81
2022/08/17 01:34:49;;;;;;;11.80;6.78;;;;;;;18.26;66.73;95727.88;4969010;28;20046;-82
2022/08/17 01:37:16;;;;;;;11.02;6.35;;;;;;;18.23;67.36;95725.88;4987146;28;20051;-82
2022/08/17 01:39:48;;;;;;;13.30;6.85;;;;;;;18.08;67.14;95721.44;4967672;28;20062;-83
2022/08/17 01:42:22;;;;;;;13.90;6.75;;;;;;;18.04;67.79;95728.88;4994727;28;20039;-82
2022/08/17 01:44:53;;;;;;;12.20;6.75;;;;;;;17.94;67.90;95728.41;4995321;28;20051;-84
2022/08/17 01:47:19;;;;;;;12.00;6.70;;;;;;;17.94;67.88;95728.41;4995558;28;20054;-82
2022/08/17 01:49:46;;;;;;;12.98;6.50;;;;;;;17.91;67.89;95733.91;4979498;28;20051;-82
2022/08/17 01:52:13;;;;;;;12.10;7.03;;;;;;;17.89;68.16;95723.25;4995747;28;20157;-83
2022/08/17 01:54:43;;;;;;;11.90;6.65;;;;;;;17.92;67.50;95722.50;4980999;28;20114;-82
2022/08/17 01:57:11;;;;;;;9.48;6.20;;;;;;;17.91;67.29;95726.44;4970783;28;20051;-82
2022/08/17 01:59:38;;;;;;;15.80;7.45;;;;;;;17.91;67.30;95728.41;4969420;28;20120;-82
2022/08/17 02:02:06;;;;;;;13.68;6.47;;;;;;;17.90;67.33;95735.06;4968812;28;20398;-82
2022/08/17 02:04:33;;;;;;;11.98;6.50;;;;;;;17.92;67.41;95739.03;4969071;28;20043;-83
2022/08/17 02:07:01;;;;;;;14.55;7.22;;;;;;;17.89;67.43;95739.78;4971292;28;20047;-82
2022/08/17 02:09:30;;;;;;;10.68;6.38;;;;;;;17.83;68.05;95746.81;4974005;28;20042;-83
2022/08/17 02:11:57;;;;;;;12.27;7.03;;;;;;;17.78;68.08;95738.88;4974374;28;20509;-82
2022/08/17 02:14:26;;;;;;;11.07;6.50;;;;;;;17.71;67.62;95736.06;4974030;28;20043;-82
2022/08/17 02:16:56;;;;;;;11.93;6.97;;;;;;;17.71;67.86;95733.28;4973761;28;20075;-82
2022/08/17 02:19:23;;;;;;;10.65;6.25;;;;;;;17.75;67.94;95728.66;4978226;28;20082;-84
2022/08/17 02:21:53;;;;;;;10.65;6.72;;;;;;;17.74;67.70;95727.03;4998549;28;20053;-82
2022/08/17 02:24:23;;;;;;;13.73;6.57;;;;;;;17.72;67.74;95726.63;4993313;28;20041;-83
2022/08/17 02:26:49;;;;;;;10.50;6.18;;;;;;;17.71;67.37;95723.06;4993786;28;20057;-84
2022/08/17 02:29:16;;;;;;;10.60;6.88;;;;;;;17.74;67.39;95721.53;4993094;28;20055;-83
2022/08/17 02:31:47;;;;;;;10.35;5.85;;;;;;;17.75;67.51;95723.16;4991385;28;20065;-83
2022/08/17 02:34:14;;;;;;;11.25;6.15;;;;;;;17.76;67.83;95718.44;4993868;28;20050;-82
2022/08/17 02:36:41;;;;;;;11.98;6.22;;;;;;;17.77;67.93;95720.78;4992493;28;20062;-85
2022/08/17 02:39:10;;;;;;;9.55;5.60;;;;;;;17.73;67.39;95722.72;4990178;28;20057;-81
2022/08/17 02:41:38;;;;;;;13.13;6.40;;;;;;;17.75;67.18;95712.13;4989581;28;20047;-83
2022/08/17 02:44:06;;;;;;;9.93;5.40;;;;;;;17.77;66.95;95709.78;4989039;28;20049;-81
2022/08/17 02:46:32;;;;;;;11.35;5.82;;;;;;;17.84;66.30;95701.56;4988490;28;20053;-82
2022/08/17 02:49:00;;;;;;;12.40;5.70;;;;;;;17.88;65.80;95696.88;4987139;28;20057;-81
2022/08/17 02:51:30;;;;;;;10.27;5.38;;;;;;;17.99;64.79;95706.03;4987969;28;20490;-82
2022/08/17 02:53:56;;;;;;;10.68;5.05;;;;;;;18.05;64.38;95703.69;4994151;28;20098;-81
2022/08/17 02:56:23;;;;;;;8.82;5.07;;;;;;;18.08;63.93;95696.66;5007467;28;20050;-83
2022/08/17 02:58:50;;;;;;;11.18;5.68;;;;;;;18.09;63.94;95703.72;5006037;28;20062;-81
2022/08/17 03:01:17;;;;;;;10.40;5.07;;;;;;;18.07;64.17;95697.81;5006987;28;20049;-82
2022/08/17 03:03:44;;;;;;;14.20;6.40;;;;;;;18.08;64.31;95691.13;5006436;28;20046;-82
2022/08/17 03:06:11;;;;;;;11.32;5.50;;;;;;;18.08;64.23;95691.13;5004802;28;20057;-81
2022/08/17 03:08:38;;;;;;;8.93;4.72;;;;;;;18.08;64.45;95685.63;5005534;28;20042;-83
2022/08/17 03:11:05;;;;;;;13.05;5.82;;;;;;;18.05;64.52;95689.13;5004326;28;20054;-82
2022/08/17 03:13:31;;;;;;;11.43;5.32;;;;;;;18.05;65.20;95686.38;5003771;28;20450;-80
2022/08/17 03:15:58;;;;;;;11.00;5.55;;;;;;;18.05;64.56;95687.16;5006647;28;20054;-81
2022/08/17 03:18:26;;;;;;;14.73;5.88;;;;;;;18.03;64.61;95688.75;5006007;28;20046;-83
2022/08/17 03:20:54;;;;;;;10.20;5.70;;;;;;;18.03;64.55;95688.75;4938942;28;20047;-82
2022/08/17 03:25:50;;;;;;;11.35;6.20;;;;;;;18.04;65.40;95687.56;5066740;23;20042;-81
2022/08/17 03:28:17;;;;;;;17.80;7.70;;;;;;;18.06;65.32;95683.25;5010403;28;20106;-83
2022/08/17 03:30:44;;;;;;;8.98;5.97;;;;;;;18.03;65.03;95684.03;5011910;28;20111;-83
2022/08/17 03:33:12;;;;;;;11.55;6.05;;;;;;;18.02;65.22;95692.69;5004011;28;20052;-81
2022/08/17 03:35:40;;;;;;;14.75;6.63;;;;;;;17.92;65.05;95685.91;5007177;28;20050;-81
2022/08/17 03:38:11;;;;;;;13.02;6.85;;;;;;;17.84;65.77;95690.53;5009803;28;20049;-82
2022/08/17 03:40:40;;;;;;;9.05;5.50;;;;;;;17.77;66.07;95689.72;5008107;28;20145;-82
2022/08/17 03:43:09;;;;;;;15.80;8.25;;;;;;;17.72;66.46;95693.56;5000650;28;20049;-80
2022/08/17 03:56:43;;;;;;;13.48;7.40;;;;;;;17.15;67.49;95706.75;5005939;28;20053;-81
2022/08/17 03:59:12;;;;;;;13.93;7.20;;;;;;;17.03;67.87;95704.28;5006015;28;20046;-84
2022/08/17 04:01:39;;;;;;;12.15;7.28;;;;;;;17.08;68.19;95707.47;5008735;28;20145;-83
2022/08/17 04:04:06;;;;;;;10.65;6.53;;;;;;;17.17;68.66;95709.91;5006640;28;20047;-83
2022/08/17 04:06:33;;;;;;;9.98;6.55;;;;;;;17.22;68.49;95706.81;5009138;28;20042;-82
2022/08/17 04:08:59;;;;;;;8.55;6.13;;;;;;;17.20;68.31;95709.97;5009796;28;20034;-83
2022/08/17 04:11:26;;;;;;;13.13;6.35;;;;;;;17.19;68.44;95718.59;5006867;28;20053;-83
2022/08/17 04:13:52;;;;;;;11.77;6.53;;;;;;;17.13;68.61;95723.66;5006988;28;20049;-82
2022/08/17 04:16:20;;;;;;;12.90;6.35;;;;;;;17.17;68.72;95720.91;5007841;28;20053;-83
2022/08/17 04:18:47;;;;;;;9.13;6.05;;;;;;;17.15;68.83;95728.78;5007409;28;20053;-83
2022/08/17 04:21:14;;;;;;;8.68;5.97;;;;;;;17.15;69.25;95728.78;5009668;28;20069;-81
2022/08/17 04:23:40;;;;;;;10.65;6.80;;;;;;;17.20;69.16;95731.19;5010190;28;20056;-82
2022/08/17 04:26:06;;;;;;;12.05;7.55;;;;;;;17.10;69.36;95737.34;5006463;28;20066;-81
2022/08/17 04:28:33;;;;;;;12.60;6.88;;;;;;;17.09;69.38;95735.78;5006753;28;20047;-82
2022/08/17 04:31:00;;;;;;;10.27;6.57;;;;;;;17.14;69.62;95738.19;4999824;28;20050;-82
2022/08/17 04:33:29;;;;;;;13.98;6.47;;;;;;;17.14;69.80;95727.19;5011430;28;20044;-83
2022/08/17 04:35:58;;;;;;;9.55;6.47;;;;;;;17.16;69.68;95725.63;5016861;28;20093;-82
2022/08/17 04:38:27;;;;;;;9.13;6.10;;;;;;;17.21;69.50;95722.53;5013125;28;20050;-83
2022/08/17 04:43:40;;;;;;;7.40;5.47;;;;;;;17.24;69.41;95729.28;5004584;28;20053;-82
2022/08/17 04:46:09;;;;;;;10.52;6.18;;;;;;;17.31;69.74;95732.09;5004614;28;20501;-81
2022/08/17 04:48:38;;;;;;;12.25;6.10;;;;;;;17.36;69.24;95723.50;4988549;28;20516;-81
2022/08/17 04:51:11;;;;;;;13.07;5.82;;;;;;;17.41;69.18;95738.88;5004448;28;20081;-84
2022/08/17 04:53:39;;;;;;;14.07;6.60;;;;;;;17.47;69.48;95735.41;5005666;28;20050;-81
2022/08/17 04:56:06;;;;;;;7.13;5.20;;;;;;;17.47;68.47;95735.41;4984607;28;20050;-81
2022/08/17 04:58:33;;;;;;;11.95;6.13;;;;;;;17.46;69.97;95731.06;4983832;28;20044;-83
2022/08/17 05:01:00;;;;;;;9.85;6.43;;;;;;;17.40;70.71;95735.34;4984940;28;20130;-83
2022/08/17 05:03:27;;;;;;;9.02;5.82;;;;;;;17.37;70.65;95736.09;4977642;28;20126;-81
2022/08/17 05:05:55;;;;;;;7.68;5.65;;;;;;;17.40;70.62;95735.34;4986480;28;20046;-83
2022/08/17 05:08:22;;;;;;;7.22;5.55;;;;;;;17.46;70.39;95728.31;4987750;28;20047;-81
2022/08/17 05:10:49;;;;;;;9.32;5.75;;;;;;;17.55;69.73;95732.75;4988614;28;20049;-82
2022/08/17 05:13:18;;;;;;;9.18;6.13;;;;;;;17.58;68.75;95731.97;4986889;28;20061;-83
2022/08/17 05:15:46;;;;;;;13.05;6.07;;;;;;;17.65;68.73;95732.06;4971761;28;20142;-81
2022/08/17 05:18:13;;;;;;;12.23;6.55;;;;;;;17.72;68.37;95730.19;4974777;28;20487;-78
2022/08/17 05:20:40;;;;;;;10.00;6.00;;;;;;;17.82;68.03;95728.72;4973060;28;20113;-79
2022/08/17 05:23:11;;;;;;;13.35;7.13;;;;;;;17.88;68.06;95721.66;4972771;28;20047;-78
2022/08/17 05:25:41;;;;;;;12.45;7.63;;;;;;;17.76;66.77;95719.22;5006264;28;20046;-79
2022/08/17 05:28:09;;;;;;;12.38;6.97;;;;;;;17.73;67.33;95720.75;5011515;28;20062;-78
2022/08/17 05:30:37;;;;;;;14.73;7.70;;;;;;;17.89;67.73;95712.22;5011727;28;20046;-79
2022/08/17 05:33:07;;;;;;;12.63;7.28;;;;;;;17.93;67.22;95718.56;5011359;28;20046;-78
2022/08/17 05:35:38;;;;;;;11.80;7.35;;;;;;;18.03;67.06;95716.28;5011909;28;20046;-79
2022/08/17 05:38:06;;;;;;;14.07;8.23;;;;;;;18.08;67.69;95718.69;5011060;28;20050;-78
2022/08/17 05:40:35;;;;;;;14.23;8.43;;;;;;;18.14;66.50;95717.94;5011866;28;20042;-79
2022/08/17 05:43:07;;;;;;;12.07;7.65;;;;;;;18.20;66.52;95718.38;5011581;28;20046;-79
2022/08/17 05:45:37;;;;;;;13.50;7.38;;;;;;;18.25;66.85;95718.81;5011531;28;20034;-78
2022/08/17 05:48:04;;;;;;;14.88;9.38;;;;;;;18.20;66.64;95710.91;5010594;28;20042;-79
2022/08/17 05:50:36;;;;;;;14.80;8.15;;;;;;;18.33;66.98;95708.63;5011523;28;20046;-78
2022/08/17 05:53:11;;;;;;;16.92;7.70;;;;;;;18.46;66.85;95701.63;5011018;28;20049;-79
2022/08/17 05:55:48;;;;;;;15.70;8.50;;;;;;;18.55;67.07;95708.78;5010926;28;20505;-80
2022/08/17 05:58:26;;;;;;;13.90;7.88;;;;;;;18.56;66.55;95721.38;5012975;28;20042;-82
2022/08/17 06:01:03;;;;;;;16.55;7.75;;;;;;;18.68;66.52;95715.56;5020426;28;20050;-81
2022/08/17 06:03:39;;;;;;;16.27;7.40;;;;;;;18.81;66.94;95716.81;5019367;28;20071;-82
2022/08/17 06:06:22;;;;;;;17.05;8.38;;;;;;;18.84;66.65;95723.53;5019883;28;20049;-81
2022/08/17 06:08:56;;;;;;;13.02;8.13;;;;;;;18.81;65.95;95725.09;5017042;28;20058;-80
2022/08/17 06:11:31;;;;;;;13.32;7.68;;;;;;;18.87;66.09;95731.81;5017474;28;20045;-81
2022/08/17 06:14:17;;;;;;;14.70;8.30;;;;;;;18.82;65.31;95731.41;5019248;28;20050;-83
2022/08/17 06:16:48;;;;;;;15.18;7.82;;;;;;;18.87;65.82;95742.06;5018579;28;20041;-82
2022/08/17 06:19:18;;;;;;;12.77;7.57;;;;;;;18.95;64.81;95743.66;5018826;28;20050;-81
2022/08/17 06:21:48;;;;;;;13.93;7.32;;;;;;;19.08;63.72;95738.63;5017954;28;20050;-81
2022/08/17 06:24:26;;;;;;;10.75;6.72;;;;;;;19.14;63.28;95748.88;5017994;28;20058;-83
2022/08/17 06:26:55;;;;;;;23.80;11.02;;;;;;;19.27;63.76;95752.09;5036545;22;20089;-84
2022/08/17 06:29:35;;;;;;;15.00;7.22;;;;;;;19.30;63.55;95754.06;5000473;28;20054;-84
2022/08/17 06:32:05;;;;;;;8.98;5.63;;;;;;;19.43;63.87;95749.78;5004184;28;20061;-80
2022/08/17 06:34:33;;;;;;;10.77;7.65;;;;;;;19.28;62.40;95756.44;5004728;28;20050;-82
2022/08/17 06:37:11;;;;;;;11.68;6.95;;;;;;;19.46;61.25;95768.31;5001160;28;20053;-81
2022/08/17 06:39:48;;;;;;;12.02;6.93;;;;;;;19.62;60.96;95769.97;5000592;28;20046;-82
2022/08/17 06:42:28;;;;;;;8.32;5.55;;;;;;;19.71;61.96;95768.44;5002317;28;20047;-81
2022/08/17 06:45:02;;;;;;;11.05;6.45;;;;;;;19.87;62.15;95783.84;5001094;28;20057;-83
2022/08/17 06:47:34;;;;;;;16.20;8.07;;;;;;;19.79;63.28;95785.81;5067171;23;20132;-83
2022/08/17 06:50:14;;;;;;;14.52;8.05;;;;;;;19.93;63.36;95780.31;4999952;28;20046;-82
2022/08/17 06:52:49;;;;;;;14.93;8.27;;;;;;;19.88;63.80;95771.63;5001391;28;20050;-82
2022/08/17 06:55:21;;;;;;;10.98;7.88;;;;;;;20.04;63.67;95775.56;5000787;28;20060;-82
2022/08/17 06:57:51;;;;;;;15.43;7.55;;;;;;;20.17;62.88;95784.28;5001609;28;20528;-82
2022/08/17 07:00:21;;;;;;;14.80;8.15;;;;;;;20.27;61.85;95782.72;5002569;28;20078;-83
2022/08/17 07:02:54;;;;;;;14.18;7.80;;;;;;;20.31;62.07;95780.75;5004077;28;20548;-83
2022/08/17 07:05:24;;;;;;;16.77;7.78;;;;;;;20.36;61.85;95780.34;5005177;28;20082;-81
2022/08/17 07:08:01;;;;;;;12.32;6.13;;;;;;;20.51;61.89;95779.16;4990554;28;20050;-82
2022/08/17 07:10:36;;;;;;;12.27;7.05;;;;;;;20.67;61.63;95794.56;5003571;28;20053;-80
2022/08/17 07:13:16;;;;;;;18.92;8.73;;;;;;;20.70;59.89;95797.34;5001864;28;20050;-80
2022/08/17 07:15:47;;;;;;;17.23;7.47;;;;;;;20.82;60.42;95787.81;5002777;28;20057;-80
2022/08/17 07:18:13;;;;;;;13.20;6.78;;;;;;;20.84;59.09;95789.03;5002992;28;20042;-80
2022/08/17 07:20:44;;;;;;;19.08;7.70;;;;;;;20.83;58.79;95795.75;5005435;28;20093;-80
2022/08/17 07:23:18;;;;;;;10.77;6.75;;;;;;;21.03;58.42;95798.84;5004282;28;20050;-80
2022/08/17 07:25:45;;;;;;;14.75;7.43;;;;;;;21.27;57.36;95813.03;4969156;28;20430;-80
2022/08/17 07:28:15;;;;;;;15.73;6.53;;;;;;;21.38;58.20;95805.50;4975780;28;20051;-81
2022/08/17 07:30:48;;;;;;;11.20;6.70;;;;;;;21.37;56.75;95809.47;4974677;28;20113;-80
2022/08/17 07:33:18;;;;;;;13.50;6.70;;;;;;;21.37;56.19;95812.25;4973497;28;20051;-80
2022/08/17 07:35:48;;;;;;;18.80;7.30;;;;;;;21.52;56.00;95805.44;4973850;28;20129;-80
2022/08/17 07:38:18;;;;;;;13.35;6.55;;;;;;;21.50;55.63;95796.75;4972863;28;20043;-80
2022/08/17 07:40:48;;;;;;;15.82;7.00;;;;;;;21.73;56.30;95806.53;4974428;28;20053;-80
2022/08/17 07:43:20;;;;;;;12.85;6.95;;;;;;;22.00;54.33;95813.13;4973132;28;20051;-80
2022/08/17 07:48:51;;;;;;;16.55;6.63;;;;;;;22.88;53.11;95810.13;4985890;28;20057;-80
2022/08/17 07:51:25;;;;;;;15.60;6.60;;;;;;;23.60;51.63;95808.13;4985763;28;20047;-81
2022/08/17 07:53:52;;;;;;;14.75;7.13;;;;;;;24.01;51.76;95811.97;4985487;28;20070;-80
2022/08/17 07:56:39;;;;;;;11.93;5.78;;;;;;;24.62;49.63;95811.88;4985267;28;20525;-80
2022/08/17 07:59:11;;;;;;;13.93;6.05;;;;;;;24.90;48.34;95807.81;4983196;28;20070;-80
2022/08/17 08:01:38;;;;;;;10.98;5.28;;;;;;;25.07;48.17;95809.56;4984171;28;20054;-81
2022/08/17 08:04:26;;;;;;;11.10;5.43;;;;;;;25.37;47.54;95805.81;4979558;28;20517;-79
2022/08/17 08:06:55;;;;;;;9.23;5.45;;;;;;;25.72;47.98;95801.50;4978552;28;20066;-80
2022/08/17 08:09:31;;;;;;;12.15;5.82;;;;;;;25.98;45.44;95804.56;4976484;28;20059;-80
2022/08/17 08:11:59;;;;;;;12.07;5.55;;;;;;;25.91;47.06;95810.31;4980484;28;20047;-81
2022/08/17 08:14:31;;;;;;;10.13;4.88;;;;;;;26.00;45.15;95818.88;4962205;28;20069;-80
2022/08/17 08:17:00;;;;;;;8.77;4.18;;;;;;;26.22;44.46;95817.16;4979558;28;20055;-80
2022/08/17 08:19:28;;;;;;;10.40;4.30;;;;;;;26.43;45.43;95824.28;4961063;28;20054;-80
2022/08/17 08:22:02;;;;;;;11.52;4.25;;;;;;;26.72;43.13;95821.59;4978151;28;20055;-81
2022/08/17 08:24:59;;;;;;;8.10;4.75;;;;;;;26.55;43.03;95822.81;4978092;28;20047;-81
2022/08/17 08:27:35;;;;;;;7.53;4.03;;;;;;;26.28;44.90;95818.22;4977443;28;20050;-81
2022/08/17 08:30:08;;;;;;;9.93;5.20;;;;;;;26.49;43.77;95818.97;4977264;28;20050;-79
2022/08/17 08:32:52;;;;;;;11.50;4.78;;;;;;;26.59;43.10;95815.16;4977693;28;20051;-79
2022/08/17 08:35:29;;;;;;;8.55;3.92;;;;;;;26.76;43.66;95822.28;4977884;28;20123;-80
2022/08/17 08:38:06;;;;;;;7.55;3.95;;;;;;;26.84;42.33;95822.13;4977317;28;20133;-80
2022/08/17 08:40:56;;;;;;;9.23;3.65;;;;;;;27.06;42.00;95817.56;4977195;28;20035;-81
2022/08/17 08:43:30;;;;;;;9.75;3.95;;;;;;;27.13;41.92;95817.38;4976308;28;20047;-82
2022/08/17 08:46:09;;;;;;;6.25;3.63;;;;;;;26.96;41.81;95815.81;4960460;28;20450;-81
2022/08/17 08:48:57;;;;;;;7.32;3.50;;;;;;;27.23;41.89;95805.16;4976717;28;20450;-81
2022/08/17 08:51:32;;;;;;;13.20;4.93;;;;;;;27.17;42.89;95794.94;4976244;28;20042;-81
2022/08/17 08:54:07;;;;;;;7.47;4.15;;;;;;;27.46;43.67;95798.53;4976484;28;20051;-81
2022/08/17 08:56:39;;;;;;;8.07;4.03;;;;;;;27.55;41.58;95801.47;4976421;28;20047;-80
2022/08/17 08:59:26;;;;;;;8.52;4.25;;;;;;;27.54;40.83;95794.31;4975775;28;20043;-81
2022/08/17 09:02:05;;;;;;;7.45;4.30;;;;;;;27.79;42.14;95793.63;4976631;28;20047;-79
2022/08/17 09:04:46;;;;;;;8.95;3.88;;;;;;;27.99;42.33;95801.81;4975648;28;20047;-81
2022/08/17 09:07:25;;;;;;;8.73;4.10;;;;;;;28.02;40.40;95800.91;4975790;28;20050;-79
2022/08/17 09:10:01;;;;;;;7.68;3.72;;;;;;;27.91;40.38;95788.47;4975646;28;20050;-81
2022/08/17 09:12:39;;;;;;;7.78;4.13;;;;;;;28.16;40.22;95793.34;4976101;28;20046;-81
2022/08/17 09:15:12;;;;;;;6.25;3.88;;;;;;;28.23;40.39;95791.06;4975151;28;20039;-81
2022/08/17 09:17:49;;;;;;;7.65;3.80;;;;;;;28.56;41.03;95777.66;4975529;28;20062;-81
2022/08/17 09:20:24;;;;;;;6.53;3.40;;;;;;;28.68;38.75;95783.69;4974206;28;20043;-81
2022/08/17 09:22:59;;;;;;;9.38;3.45;;;;;;;28.37;38.56;95783.50;4973331;28;20134;-81
2022/08/17 09:25:31;;;;;;;8.25;4.10;;;;;;;28.19;39.27;95798.81;4974658;28;20047;-81
2022/08/17 09:28:02;;;;;;;7.65;4.13;;;;;;;28.36;39.51;95785.53;4974186;28;20414;-80
2022/08/17 09:30:37;;;;;;;6.53;3.95;;;;;;;28.50;40.51;95789.88;4973585;28;20376;-80
2022/08/17 09:33:07;;;;;;;7.00;3.80;;;;;;;28.73;39.63;95786.72;4973570;28;20051;-81
2022/08/17 09:35:40;;;;;;;10.20;4.28;;;;;;;28.90;39.09;95789.38;4973995;28;20047;-80
2022/08/17 09:38:21;;;;;;;7.75;3.88;;;;;;;29.06;37.20;95783.63;4972772;28;20051;-81
2022/08/17 09:40:52;;;;;;;9.48;3.80;;;;;;;29.31;38.82;95780.72;4972843;28;20054;-81
2022/08/17 09:43:29;;;;;;;6.60;3.58;;;;;;;29.34;36.75;95788.25;4972351;28;20057;-82
2022/08/17 09:46:00;;;;;;;6.80;3.70;;;;;;;29.37;37.34;95783.72;4973244;28;20058;-82
2022/08/17 09:48:35;;;;;;;8.02;3.88;;;;;;;29.44;36.66;95788.28;4971927;28;20039;-81
2022/08/17 09:51:07;;;;;;;5.63;2.92;;;;;;;29.61;37.77;95793.31;4972425;28;20113;-80
2022/08/17 09:53:36;;;;;;;8.05;3.45;;;;;;;29.73;37.16;95788.84;4972601;28;20624;-82
2022/08/17 09:56:17;;;;;;;11.10;4.28;;;;;;;29.71;36.29;95779.34;4972183;28;20042;-80
2022/08/17 09:58:58;;;;;;;11.30;3.90;;;;;;;29.72;36.23;95784.50;4972821;28;20131;-81
2022/08/17 10:01:35;;;;;;;9.82;3.80;;;;;;;29.70;36.68;95777.75;4972647;28;20050;-81
2022/08/17 10:04:22;;;;;;;9.57;3.70;;;;;;;29.77;36.81;95778.28;4972105;28;20058;-77
2022/08/17 10:06:56;;;;;;;11.55;4.20;;;;;;;29.79;36.30;95775.78;4972305;28;20133;-80
2022/08/17 10:09:40;;;;;;;8.90;3.70;;;;;;;29.87;35.04;95777.09;4971776;28;20051;-81
2022/08/17 10:12:19;;;;;;;11.15;3.88;;;;;;;29.82;36.61;95779.72;4971739;28;20045;-81
2022/08/17 10:14:59;;;;;;;10.93;4.20;;;;;;;29.61;36.66;95775.69;4972419;28;20056;-81
2022/08/17 10:17:36;;;;;;;12.80;4.00;;;;;;;29.76;36.41;95779.53;4971905;28;20126;-80
2022/08/17 10:20:11;;;;;;;10.85;3.80;;;;;;;30.03;36.05;95772.50;4971661;28;20065;-81
2022/08/17 10:28:19;;;;;;;11.35;4.07;;;;;;;30.07;34.76;95778.75;4971532;28;20134;-81
2022/08/17 10:30:50;;;;;;;9.27;3.53;;;;;;;30.01;35.17;95770.13;4971588;28;20059;-79
2022/08/17 10:33:23;;;;;;;9.80;3.60;;;;;;;30.14;33.70;95767.28;4970908;28;20071;-81
2022/08/17 10:36:00;;;;;;;11.52;3.80;;;;;;;30.12;34.54;95772.56;4971896;28;20043;-80
2022/08/17 10:38:46;;;;;;;9.30;3.47;;;;;;;30.11;35.21;95768.94;4971490;28;20038;-80
2022/08/17 10:41:23;;;;;;;14.05;4.40;;;;;;;30.13;33.49;95768.53;4970813;28;20051;-80
2022/08/17 10:44:02;;;;;;;11.68;3.92;;;;;;;30.08;33.78;95764.28;4977451;28;20078;-81
2022/08/17 10:46:54;;;;;;;11.32;3.58;;;;;;;30.21;32.80;95766.22;4990429;28;20046;-80
2022/08/17 10:49:32;;;;;;;13.02;4.18;;;;;;;30.27;34.65;95756.72;5009051;28;20038;-81
2022/08/17 10:52:02;;;;;;;14.13;4.25;;;;;;;30.21;34.56;95755.75;5010360;28;20049;-80
2022/08/17 10:54:45;;;;;;;14.20;4.50;;;;;;;30.35;33.43;95743.97;5002651;28;20042;-81
2022/08/17 10:57:33;;;;;;;;;;;;;;;30.38;33.97;95754.28;4990791;28;20457;-80
2022/08/17 11:00:01;;;;;;;9.38;3.65;;;;;;;30.16;32.06;95759.16;4990712;28;19926;-81
2022/08/17 11:02:32;;;;;;;7.38;3.35;;;;;;;30.14;34.27;95762.44;4990152;28;20042;-81
2022/08/17 11:05:14;;;;;;;10.82;3.83;;;;;;;30.34;33.78;95764.88;4990448;28;20515;-81
2022/08/17 11:08:05;;;;;;;10.65;4.15;;;;;;;29.78;32.92;95767.84;4990554;28;20048;-80
2022/08/17 11:10:54;;;;;;;12.63;4.15;;;;;;;29.92;33.52;95772.16;4990488;28;20043;-81
2022/08/17 11:13:30;;;;;;;10.25;3.85;;;;;;;29.67;33.48;95773.06;4990485;28;20751;-81
2022/08/17 11:16:10;;;;;;;10.05;3.47;;;;;;;29.48;33.20;95763.72;4990677;28;20066;-81
2022/08/17 11:19:03;;;;;;;10.15;3.72;;;;;;;29.40;33.47;95759.63;4990561;28;20046;-80
2022/08/17 11:21:43;;;;;;;13.52;4.15;;;;;;;29.48;33.81;95769.31;4990397;28;20082;-79
2022/08/17 11:24:18;;;;;;;12.43;4.20;;;;;;;29.63;35.94;95778.81;4990041;28;20046;-80
2022/08/17 11:27:01;;;;;;;9.95;3.67;;;;;;;29.81;33.43;95767.72;4990658;28;20539;-81
2022/08/17 11:29:33;;;;;;;9.55;3.88;;;;;;;29.81;33.08;95767.72;4990609;28;20058;-80
2022/08/17 11:32:12;;;;;;;10.45;3.97;;;;;;;29.90;35.67;95769.78;4990383;28;20046;-82
2022/08/17 11:34:42;;;;;;;16.98;4.60;;;;;;;29.99;34.10;95764.22;4988508;28;20417;-80
2022/08/17 11:37:30;;;;;;;11.35;4.30;;;;;;;30.10;33.71;95769.41;4989455;28;20050;-80
2022/08/17 11:40:35;;;;;;;16.27;4.78;;;;;;;30.05;34.71;95784.06;4988967;28;20054;-80
2022/08/17 11:43:23;;;;;;;11.48;4.13;;;;;;;30.25;32.88;95778.88;4989000;28;20050;-81
2022/08/17 11:46:01;;;;;;;12.27;4.38;;;;;;;30.18;33.28;95767.94;4991851;28;20046;-82
2022/08/17 11:51:34;;;;;;;8.30;3.40;;;;;;;30.12;33.91;95764.13;5013425;28;20052;-82
2022/08/17 11:54:08;;;;;;;11.20;4.15;;;;;;;30.09;34.49;95770.66;5010691;28;20405;-84
2022/08/17 11:56:43;;;;;;;10.50;4.10;;;;;;;30.07;34.13;95770.31;4994269;28;20532;-81
2022/08/17 11:59:53;;;;;;;10.88;4.00;;;;;;;30.00;34.81;95770.63;4993851;28;20043;-82
2022/08/17 12:02:44;;;;;;;7.80;3.38;;;;;;;30.01;34.99;95763.75;4983301;28;20053;-82
2022/08/17 12:05:31;;;;;;;10.80;4.15;;;;;;;30.00;34.42;95767.81;4993753;28;20054;-81
2022/08/17 12:08:07;;;;;;;10.32;3.88;;;;;;;30.18;34.22;95769.97;4993841;28;20138;-83
2022/08/17 12:10:39;;;;;;;7.88;3.40;;;;;;;30.21;34.67;95771.84;4993613;28;20104;-82
2022/08/17 12:13:16;;;;;;;13.52;4.28;;;;;;;29.96;34.26;95778.38;4993506;28;20060;-83
2022/08/17 12:15:48;;;;;;;9.57;3.75;;;;;;;29.85;33.76;95779.56;4994079;28;20050;-83
2022/08/17 12:18:19;;;;;;;10.05;3.92;;;;;;;30.01;35.56;95786.22;4993423;28;20058;-84